Time;durP1;ratioP1;P1;durP2;ratioP2;P2;SDS_P1;SDS_P2;PMS_P1;PMS_P2;Temp;Humidity;BMP_temperature;BMP_pressure;BME280_temperature;BME280_humidity;BME280_pressure;Samples;Min_cycle;Max_cycle;Signal;HPM_P1;HPM_P2
2022/05/31 00:02:16;;;;;;;14.95;5.45;;;;;;;;;;4946526;28;20418;-83
2022/05/31 00:04:42;;;;;;;11.95;4.95;;;;;;;;;;4957854;28;20035;-82
2022/05/31 00:07:08;;;;;;;9.75;5.32;;;;;;;;;;4963978;28;20557;-83
2022/05/31 00:09:35;;;;;;;17.00;5.70;;;;;;;;;;4961374;28;20027;-82
2022/05/31 00:12:01;;;;;;;9.38;4.88;;;;;;;;;;4963449;28;20044;-82
2022/05/31 00:14:27;;;;;;;10.27;5.47;;;;;;;;;;4944948;28;20597;-82
2022/05/31 00:16:53;;;;;;;10.07;5.53;;;;;;;;;;4956933;28;20394;-82
2022/05/31 00:19:20;;;;;;;12.45;5.28;;;;;;;;;;4958740;28;20042;-83
2022/05/31 00:21:46;;;;;;;17.55;5.85;;;;;;;;;;4945564;28;20442;-83
2022/05/31 00:24:13;;;;;;;13.38;6.07;;;;;;;;;;4941083;28;20053;-83
2022/05/31 00:26:40;;;;;;;10.70;5.20;;;;;;;;;;4959252;28;20022;-82
2022/05/31 00:29:07;;;;;;;10.98;5.53;;;;;;;;;;4959575;28;20030;-83
2022/05/31 00:31:34;;;;;;;10.10;5.28;;;;;;;;;;4966022;28;20048;-82
2022/05/31 00:34:00;;;;;;;10.70;6.25;;;;;;;;;;4966139;28;20073;-82
2022/05/31 00:36:26;;;;;;;10.40;5.55;;;;;;;;;;4963522;28;20097;-83
2022/05/31 00:38:53;;;;;;;11.07;5.47;;;;;;;;;;4967999;28;20555;-82
2022/05/31 00:41:23;;;;;;;14.30;5.97;;;;;;;;;;4984657;28;20030;-82
2022/05/31 00:43:49;;;;;;;11.38;6.05;;;;;;;;;;4965626;28;20038;-82
2022/05/31 00:46:15;;;;;;;11.18;5.40;;;;;;;;;;4974400;28;20466;-82
2022/05/31 00:48:46;;;;;;;12.55;6.22;;;;;;;;;;4958972;28;20037;-82
2022/05/31 00:51:14;;;;;;;15.43;6.72;;;;;;;;;;4958791;28;20166;-82
2022/05/31 00:53:46;;;;;;;13.68;5.90;;;;;;;;;;4965551;28;20828;-82
2022/05/31 00:56:15;;;;;;;11.50;5.75;;;;;;;;;;4965242;28;20458;-82
2022/05/31 00:59:01;;;;;;;9.10;5.30;;;;;;;;;;4976928;28;20501;-82
2022/05/31 01:01:28;;;;;;;11.20;6.38;;;;;;;;;;4961213;28;20046;-82
2022/05/31 01:03:55;;;;;;;9.95;5.68;;;;;;;;;;4967725;28;20113;-82
2022/05/31 01:06:21;;;;;;;9.73;6.32;;;;;;;;;;4980325;28;20105;-82
2022/05/31 01:08:47;;;;;;;10.65;6.50;;;;;;;;;;4960393;28;20413;-82
2022/05/31 01:11:14;;;;;;;13.88;6.57;;;;;;;;;;4976764;28;20077;-82
2022/05/31 01:13:41;;;;;;;11.57;6.97;;;;;;;;;;4961067;28;20057;-83
2022/05/31 01:16:09;;;;;;;11.77;6.93;;;;;;;;;;4973262;28;20489;-83
2022/05/31 01:18:42;;;;;;;16.25;7.05;;;;;;;;;;4972581;28;20073;-81
2022/05/31 01:21:08;;;;;;;15.07;7.30;;;;;;;;;;4963496;28;20030;-83
2022/05/31 01:23:47;;;;;;;16.77;6.95;;;;;;;;;;4961652;28;20066;-83
2022/05/31 01:26:19;;;;;;;14.05;6.80;;;;;;;;;;4962223;28;20042;-83
2022/05/31 01:28:48;;;;;;;11.55;6.20;;;;;;;;;;4960751;28;20402;-83
2022/05/31 01:31:21;;;;;;;10.20;6.65;;;;;;;;;;4961598;28;20133;-83
2022/05/31 01:33:51;;;;;;;13.85;6.63;;;;;;;;;;4964984;28;20039;-83
2022/05/31 01:36:22;;;;;;;22.05;6.68;;;;;;;;;;4954010;28;20034;-83
2022/05/31 01:38:52;;;;;;;14.07;5.90;;;;;;;;;;4979010;28;20034;-82
2022/05/31 01:41:26;;;;;;;11.93;5.85;;;;;;;;;;4963113;28;20109;-81
2022/05/31 01:43:52;;;;;;;10.13;6.13;;;;;;;;;;4975826;28;20549;-82
2022/05/31 01:46:22;;;;;;;11.75;6.18;;;;;;;;;;4968297;28;20497;-82
2022/05/31 01:48:49;;;;;;;13.63;5.78;;;;;;;;;;4961114;28;20130;-83
2022/05/31 01:51:15;;;;;;;12.27;5.70;;;;;;;;;;4956020;28;20206;-82
2022/05/31 01:53:41;;;;;;;11.98;6.07;;;;;;;;;;4951027;28;20063;-83
2022/05/31 01:56:09;;;;;;;9.73;5.70;;;;;;;;;;4967405;28;20038;-83
2022/05/31 01:58:37;;;;;;;16.45;5.82;;;;;;;;;;4957673;28;20049;-83
2022/05/31 02:01:03;;;;;;;12.10;5.68;;;;;;;;;;4956202;28;20490;-83
2022/05/31 02:03:29;;;;;;;13.73;5.93;;;;;;;;;;4975290;28;20039;-83
2022/05/31 02:05:56;;;;;;;10.15;5.32;;;;;;;;;;4965698;28;20026;-83
2022/05/31 02:08:23;;;;;;;11.43;5.95;;;;;;;;;;4960476;28;20034;-82
2022/05/31 02:10:49;;;;;;;12.20;6.00;;;;;;;;;;4979894;28;20502;-82
2022/05/31 02:13:16;;;;;;;10.05;6.18;;;;;;;;;;4959447;28;20399;-83
2022/05/31 02:15:43;;;;;;;11.57;5.63;;;;;;;;;;4960902;28;20163;-82
2022/05/31 02:18:09;;;;;;;8.80;6.22;;;;;;;;;;4961252;28;20040;-83
2022/05/31 02:20:35;;;;;;;11.13;5.72;;;;;;;;;;4959905;28;20375;-83
2022/05/31 02:23:01;;;;;;;13.60;6.28;;;;;;;;;;4961985;28;20391;-83
2022/05/31 02:25:27;;;;;;;10.90;5.95;;;;;;;;;;4970375;28;20486;-83
2022/05/31 02:27:53;;;;;;;9.50;6.18;;;;;;;;;;4966786;28;20141;-84
2022/05/31 02:30:20;;;;;;;11.10;6.03;;;;;;;;;;4951841;28;20026;-83
2022/05/31 02:32:46;;;;;;;12.55;5.53;;;;;;;;;;4960616;28;20057;-83
2022/05/31 02:35:12;;;;;;;12.48;6.13;;;;;;;;;;4962800;28;20549;-83
2022/05/31 02:37:38;;;;;;;9.93;5.88;;;;;;;;;;4983523;28;20023;-82
2022/05/31 02:40:05;;;;;;;10.43;6.03;;;;;;;;;;4979916;28;20109;-83
2022/05/31 02:42:32;;;;;;;11.88;6.22;;;;;;;;;;4982265;28;20031;-83
2022/05/31 02:44:58;;;;;;;9.48;5.57;;;;;;;;;;4965287;28;20508;-83
2022/05/31 02:47:24;;;;;;;14.27;6.32;;;;;;;;;;4981863;28;20278;-83
2022/05/31 02:49:50;;;;;;;8.90;5.53;;;;;;;;;;4978441;28;20377;-83
2022/05/31 02:52:16;;;;;;;9.10;6.28;;;;;;;;;;4976890;28;20484;-83
2022/05/31 02:54:42;;;;;;;12.30;5.75;;;;;;;;;;4965377;28;20035;-84
2022/05/31 02:57:09;;;;;;;12.00;6.00;;;;;;;;;;4968849;28;20084;-82
2022/05/31 02:59:35;;;;;;;10.02;6.32;;;;;;;;;;4965461;28;20038;-83
2022/05/31 03:02:01;;;;;;;11.57;5.63;;;;;;;;;;4966669;28;20035;-83
2022/05/31 03:04:27;;;;;;;9.50;5.97;;;;;;;;;;4966469;28;20125;-83
2022/05/31 03:06:53;;;;;;;9.60;6.10;;;;;;;;;;4964754;28;20030;-83
2022/05/31 03:09:19;;;;;;;15.40;7.55;;;;;;;;;;4978482;28;20030;-83
2022/05/31 03:11:48;;;;;;;9.60;6.03;;;;;;;;;;4966979;28;20057;-83
2022/05/31 03:14:30;;;;;;;15.02;5.80;;;;;;;;;;4958673;28;20533;-83
2022/05/31 03:17:06;;;;;;;10.95;6.60;;;;;;;;;;4967695;28;20401;-83
2022/05/31 03:19:34;;;;;;;12.18;5.78;;;;;;;;;;4980357;28;20033;-83
2022/05/31 03:22:04;;;;;;;12.23;6.68;;;;;;;;;;4976346;28;20030;-83
2022/05/31 03:24:34;;;;;;;14.55;6.32;;;;;;;;;;4964375;28;21238;-83
2022/05/31 03:27:02;;;;;;;10.70;6.18;;;;;;;;;;4978178;28;20085;-83
2022/05/31 03:29:28;;;;;;;15.48;6.43;;;;;;;;;;4979824;28;20038;-83
2022/05/31 03:31:55;;;;;;;10.25;6.30;;;;;;;;;;4965715;28;20046;-83
2022/05/31 03:34:21;;;;;;;12.38;6.22;;;;;;;;;;4975542;28;20375;-83
2022/05/31 03:36:47;;;;;;;11.20;5.78;;;;;;;;;;4957889;28;20449;-82
2022/05/31 03:39:13;;;;;;;14.65;6.15;;;;;;;;;;4964137;28;20529;-83
2022/05/31 03:41:39;;;;;;;15.15;6.70;;;;;;;;;;4964647;28;20630;-83
2022/05/31 03:44:06;;;;;;;9.40;4.97;;;;;;;;;;4977383;28;20038;-83
2022/05/31 03:46:32;;;;;;;10.30;5.57;;;;;;;;;;4962904;28;20026;-83
2022/05/31 03:49:01;;;;;;;10.13;4.68;;;;;;;;;;4963603;28;20034;-83
2022/05/31 03:51:27;;;;;;;11.00;5.20;;;;;;;;;;4956957;28;20044;-83
2022/05/31 03:53:53;;;;;;;12.88;5.40;;;;;;;;;;4975621;28;20500;-83
2022/05/31 03:56:19;;;;;;;14.63;5.43;;;;;;;;;;4958542;28;20036;-83
2022/05/31 03:58:45;;;;;;;7.60;4.97;;;;;;;;;;4960039;28;20038;-83
2022/05/31 04:01:12;;;;;;;9.65;4.78;;;;;;;;;;4959661;28;20038;-83
2022/05/31 04:03:38;;;;;;;9.35;5.65;;;;;;;;;;4965420;28;20387;-83
2022/05/31 04:06:04;;;;;;;24.88;7.00;;;;;;;;;;4961226;28;20018;-84
2022/05/31 04:08:30;;;;;;;13.48;5.57;;;;;;;;;;4962887;28;20031;-83
2022/05/31 04:10:56;;;;;;;8.65;5.38;;;;;;;;;;4964835;28;20088;-84
2022/05/31 04:13:22;;;;;;;10.02;5.57;;;;;;;;;;4963256;28;20030;-84
2022/05/31 04:15:49;;;;;;;10.52;5.43;;;;;;;;;;4957182;28;20035;-83
2022/05/31 04:18:16;;;;;;;11.18;5.10;;;;;;;;;;4966934;28;20125;-84
2022/05/31 04:20:43;;;;;;;8.15;5.05;;;;;;;;;;4963033;28;20505;-84
2022/05/31 04:26:07;;;;;;;11.37;5.50;;;;;;;;;;4978762;28;20061;-83
2022/05/31 04:28:33;;;;;;;7.88;4.85;;;;;;;;;;4965270;28;20035;-83
2022/05/31 04:30:59;;;;;;;7.28;4.72;;;;;;;;;;4959653;28;20529;-84
2022/05/31 04:33:25;;;;;;;8.32;4.95;;;;;;;;;;4981139;28;20086;-83
2022/05/31 04:36:05;;;;;;;6.97;4.53;;;;;;;;;;4969435;28;20038;-83
2022/05/31 04:38:31;;;;;;;12.98;5.18;;;;;;;;;;4966143;28;20031;-83
2022/05/31 04:40:57;;;;;;;9.23;4.90;;;;;;;;;;4961730;28;20031;-83
2022/05/31 04:43:30;;;;;;;6.78;4.57;;;;;;;;;;4963152;28;20045;-84
2022/05/31 04:45:56;;;;;;;8.13;5.07;;;;;;;;;;4975842;28;20356;-84
2022/05/31 04:48:22;;;;;;;9.90;5.13;;;;;;;;;;4960750;28;20081;-83
2022/05/31 04:50:48;;;;;;;10.77;5.05;;;;;;;;;;4976341;28;20509;-83
2022/05/31 04:53:14;;;;;;;9.82;5.43;;;;;;;;;;4959072;28;20509;-84
2022/05/31 04:55:40;;;;;;;10.93;5.70;;;;;;;;;;4976560;28;20402;-84
2022/05/31 04:58:08;;;;;;;8.30;5.15;;;;;;;;;;4976972;28;20759;-83
2022/05/31 05:00:34;;;;;;;6.78;5.38;;;;;;;;;;4964557;28;20548;-83
2022/05/31 05:03:00;;;;;;;7.95;5.47;;;;;;;;;;4966866;28;20029;-84
2022/05/31 05:05:26;;;;;;;8.05;5.18;;;;;;;;;;4964217;28;20111;-83
2022/05/31 05:07:52;;;;;;;8.73;5.57;;;;;;;;;;4966361;28;20533;-83
2022/05/31 05:10:19;;;;;;;13.15;5.95;;;;;;;;;;4960775;28;20035;-83
2022/05/31 05:12:45;;;;;;;9.30;5.85;;;;;;;;;;4978222;28;20578;-83
2022/05/31 05:15:11;;;;;;;10.55;6.35;;;;;;;;;;4958093;28;20042;-83
2022/05/31 05:17:37;;;;;;;8.15;5.78;;;;;;;;;;4965815;28;20117;-83
2022/05/31 05:20:03;;;;;;;12.93;6.18;;;;;;;;;;4958802;28;20060;-83
2022/05/31 05:22:29;;;;;;;15.27;6.60;;;;;;;;;;4963215;28;20038;-83
2022/05/31 05:24:55;;;;;;;8.55;5.43;;;;;;;;;;4965884;28;20375;-83
2022/05/31 05:27:21;;;;;;;9.57;6.22;;;;;;;;;;4962035;28;20080;-83
2022/05/31 05:32:32;;;;;;;12.30;5.88;;;;;;;;;;4977668;28;20112;-84
2022/05/31 05:34:58;;;;;;;13.38;5.97;;;;;;;;;;4959209;28;20030;-83
2022/05/31 05:37:24;;;;;;;10.43;5.72;;;;;;;;;;4958962;28;20034;-85
2022/05/31 05:39:50;;;;;;;9.43;5.88;;;;;;;;;;4961014;28;20117;-85
2022/05/31 05:42:16;;;;;;;8.35;6.10;;;;;;;;;;4955946;28;20038;-85
2022/05/31 05:44:42;;;;;;;8.68;5.78;;;;;;;;;;4961035;28;20057;-85
2022/05/31 05:47:10;;;;;;;8.88;6.35;;;;;;;;;;4964098;28;20044;-85
2022/05/31 05:49:36;;;;;;;8.23;5.35;;;;;;;;;;4960740;28;20508;-85
2022/05/31 05:52:15;;;;;;;8.95;5.95;;;;;;;;;;4977101;28;20027;-84
2022/05/31 05:54:41;;;;;;;10.13;6.30;;;;;;;;;;4976289;28;20402;-84
2022/05/31 05:57:07;;;;;;;8.40;5.78;;;;;;;;;;4977533;28;20397;-84
2022/05/31 05:59:33;;;;;;;10.10;5.68;;;;;;;;;;4966058;28;20034;-84
2022/05/31 06:02:03;;;;;;;11.52;7.05;;;;;;;;;;4965549;28;20038;-85
2022/05/31 06:04:32;;;;;;;12.50;7.05;;;;;;;;;;4962161;28;20041;-85
2022/05/31 06:07:09;;;;;;;10.45;7.07;;;;;;;;;;4959509;28;20030;-84
2022/05/31 06:09:35;;;;;;;19.70;7.60;;;;;;;;;;4978809;28;20027;-84
2022/05/31 06:12:09;;;;;;;12.90;6.90;;;;;;;;;;4960677;28;20084;-85
2022/05/31 06:14:43;;;;;;;10.38;6.75;;;;;;;;;;4960094;28;20048;-85
2022/05/31 06:17:12;;;;;;;15.63;6.57;;;;;;;;;;4961284;28;20153;-85
2022/05/31 06:19:40;;;;;;;11.80;6.18;;;;;;;;;;4959348;28;20038;-84
2022/05/31 06:22:07;;;;;;;14.65;6.65;;;;;;;;;;4955322;28;20039;-84
2022/05/31 06:24:34;;;;;;;10.60;6.20;;;;;;;;;;4957781;28;20049;-84
2022/05/31 06:27:00;;;;;;;11.27;5.72;;;;;;;;;;4956461;28;20031;-86
2022/05/31 06:29:27;;;;;;;13.00;6.22;;;;;;;;;;4971195;28;20379;-85
2022/05/31 06:31:54;;;;;;;10.85;5.97;;;;;;;;;;4968943;28;20038;-84
2022/05/31 06:34:21;;;;;;;9.32;6.93;;;;;;;;;;4980880;28;20034;-84
2022/05/31 06:36:47;;;;;;;9.80;5.70;;;;;;;;;;4964237;28;20030;-85
2022/05/31 06:39:13;;;;;;;10.88;6.68;;;;;;;;;;4965246;28;20180;-85
2022/05/31 06:41:39;;;;;;;11.57;7.45;;;;;;;;;;4983161;28;20034;-84
2022/05/31 06:44:05;;;;;;;12.15;6.60;;;;;;;;;;4966492;28;20042;-85
2022/05/31 06:46:31;;;;;;;10.02;6.65;;;;;;;;;;4963142;28;20375;-85
2022/05/31 06:48:57;;;;;;;11.27;7.53;;;;;;;;;;4953812;28;20980;-85
2022/05/31 06:56:55;;;;;;;10.18;7.18;;;;;;;;;;4973908;28;20085;-84
2022/05/31 06:59:21;;;;;;;13.20;7.50;;;;;;;;;;4961807;28;20035;-85
2022/05/31 07:01:48;;;;;;;13.43;7.38;;;;;;;;;;4963114;28;20034;-85
2022/05/31 07:04:14;;;;;;;14.60;7.15;;;;;;;;;;4962779;28;20031;-84
2022/05/31 07:06:40;;;;;;;11.38;6.82;;;;;;;;;;4964990;28;20126;-85
2022/05/31 07:09:07;;;;;;;12.38;7.10;;;;;;;;;;4959947;28;20113;-85
2022/05/31 07:11:33;;;;;;;10.68;6.70;;;;;;;;;;4966004;28;20053;-85
2022/05/31 07:14:00;;;;;;;13.95;7.53;;;;;;;;;;4959479;28;20587;-85
2022/05/31 07:16:26;;;;;;;12.57;6.63;;;;;;;;;;4958984;28;20055;-85
2022/05/31 07:18:53;;;;;;;10.40;6.35;;;;;;;;;;4966157;28;20116;-85
2022/05/31 07:21:19;;;;;;;15.75;6.50;;;;;;;;;;4968051;28;20650;-85
2022/05/31 07:23:45;;;;;;;9.32;6.45;;;;;;;;;;4964482;28;20037;-85
2022/05/31 07:26:14;;;;;;;10.80;5.85;;;;;;;;;;4965660;28;20230;-85
2022/05/31 07:28:40;;;;;;;10.35;5.30;;;;;;;;;;4969160;28;20029;-84
2022/05/31 07:31:07;;;;;;;8.93;5.40;;;;;;;;;;4981614;28;20532;-84
2022/05/31 07:33:40;;;;;;;11.65;4.95;;;;;;;;;;4967944;28;20533;-85
2022/05/31 07:36:07;;;;;;;7.47;4.38;;;;;;;;;;4965047;28;20026;-85
2022/05/31 07:38:34;;;;;;;7.43;5.07;;;;;;;;;;4965528;28;20457;-84
2022/05/31 07:41:00;;;;;;;7.28;4.60;;;;;;;;;;4978977;28;20030;-85
2022/05/31 07:43:26;;;;;;;9.82;5.15;;;;;;;;;;4969289;28;20422;-85
2022/05/31 07:46:06;;;;;;;9.30;5.03;;;;;;;;;;4979097;28;20038;-85
2022/05/31 07:48:33;;;;;;;7.82;4.72;;;;;;;;;;4968703;28;20502;-85
2022/05/31 07:50:59;;;;;;;8.05;4.85;;;;;;;;;;4969770;28;20155;-85
2022/05/31 07:53:25;;;;;;;11.93;5.35;;;;;;;;;;4970237;28;20390;-86
2022/05/31 07:55:58;;;;;;;6.97;4.38;;;;;;;;;;4967008;28;20034;-85
2022/05/31 07:58:30;;;;;;;6.80;5.05;;;;;;;;;;4988545;28;20065;-85
2022/05/31 08:00:56;;;;;;;8.48;4.53;;;;;;;;;;4980610;28;20398;-85
2022/05/31 08:03:22;;;;;;;5.65;4.13;;;;;;;;;;4980778;28;20027;-85
2022/05/31 08:05:48;;;;;;;5.57;3.85;;;;;;;;;;4968349;28;20537;-86
2022/05/31 08:08:14;;;;;;;9.25;3.72;;;;;;;;;;4979419;28;20555;-86
2022/05/31 08:10:41;;;;;;;9.55;4.35;;;;;;;;;;4972372;28;20050;-86
2022/05/31 08:13:07;;;;;;;5.10;3.70;;;;;;;;;;4966646;28;20035;-86
2022/05/31 08:15:33;;;;;;;9.35;4.18;;;;;;;;;;4969078;28;20256;-86
2022/05/31 08:17:59;;;;;;;8.27;4.13;;;;;;;;;;4964306;28;20501;-85
2022/05/31 08:20:25;;;;;;;7.32;3.47;;;;;;;;;;4966840;28;20038;-86
2022/05/31 08:22:51;;;;;;;9.38;4.57;;;;;;;;;;4967642;28;20137;-86
2022/05/31 08:25:17;;;;;;;31.67;6.63;;;;;;;;;;4982441;28;20042;-85
2022/05/31 08:27:43;;;;;;;6.72;3.70;;;;;;;;;;4978313;28;20052;-86
2022/05/31 08:30:10;;;;;;;7.03;4.20;;;;;;;;;;4980078;28;20038;-86
2022/05/31 08:32:36;;;;;;;6.88;3.83;;;;;;;;;;4973384;28;20046;-87
2022/05/31 08:35:03;;;;;;;9.13;4.22;;;;;;;;;;4963863;28;20133;-86
2022/05/31 08:37:30;;;;;;;6.00;3.40;;;;;;;;;;4961115;28;20069;-86
2022/05/31 08:39:56;;;;;;;9.57;4.13;;;;;;;;;;4975712;28;20038;-85
2022/05/31 08:42:25;;;;;;;11.65;4.03;;;;;;;;;;4962644;28;20046;-86
2022/05/31 08:45:02;;;;;;;15.55;4.22;;;;;;;;;;4963349;28;20037;-86
2022/05/31 08:47:58;;;;;;;7.90;4.03;;;;;;;;;;4979247;28;20031;-85
2022/05/31 08:53:39;;;;;;;5.80;3.85;;;;;;;;;;4938911;28;20030;-86
2022/05/31 08:58:59;;;;;;;6.65;3.50;;;;;;;;;;4978296;28;20044;-86
2022/05/31 09:01:37;;;;;;;4.53;3.33;;;;;;;;;;4974654;28;20113;-86
2022/05/31 09:04:15;;;;;;;5.55;3.05;;;;;;;;;;4967931;28;20086;-86
2022/05/31 09:06:47;;;;;;;4.40;3.13;;;;;;;;;;4962374;28;20022;-86
2022/05/31 09:09:17;;;;;;;5.57;3.35;;;;;;;;;;4954220;28;20034;-86
2022/05/31 09:11:58;;;;;;;8.68;3.53;;;;;;;;;;4963399;28;22926;-86
2022/05/31 09:14:38;;;;;;;4.10;2.90;;;;;;;;;;4971721;28;20038;-86
2022/05/31 09:17:22;;;;;;;4.65;2.70;;;;;;;;;;4963705;28;20348;-86
2022/05/31 09:20:02;;;;;;;3.88;2.75;;;;;;;;;;4963881;28;20038;-86
2022/05/31 09:22:29;;;;;;;5.63;3.00;;;;;;;;;;4964453;28;20073;-85
2022/05/31 09:24:56;;;;;;;6.60;3.03;;;;;;;;;;4961971;28;20077;-86
2022/05/31 09:27:31;;;;;;;6.40;2.72;;;;;;;;;;4979660;28;20034;-86
2022/05/31 09:30:01;;;;;;;6.87;2.97;;;;;;;;;;4979358;28;20053;-86
2022/05/31 09:32:46;;;;;;;6.30;3.15;;;;;;;;;;4964265;28;20635;-86
2022/05/31 09:35:19;;;;;;;5.45;3.30;;;;;;;;;;4961150;28;20034;-85
2022/05/31 09:38:03;;;;;;;6.93;3.25;;;;;;;;;;4958071;28;20037;-85
2022/05/31 09:40:29;;;;;;;6.55;3.47;;;;;;;;;;4971552;28;20397;-85
2022/05/31 09:43:17;;;;;;;7.57;3.55;;;;;;;;;;4980745;28;20363;-85
2022/05/31 09:46:10;;;;;;;4.63;2.95;;;;;;;;;;4963960;28;20040;-85
2022/05/31 09:48:44;;;;;;;7.75;2.35;;;;;;;;;;4970046;28;20039;-85
2022/05/31 09:51:31;;;;;;;4.93;2.65;;;;;;;;;;4965044;28;20030;-85
2022/05/31 09:59:29;;;;;;;9.50;3.22;;;;;;;;;;4981886;28;20087;-85
2022/05/31 10:01:56;;;;;;;5.78;3.60;;;;;;;;;;4965324;28;20538;-85
2022/05/31 10:04:26;;;;;;;5.93;3.10;;;;;;;;;;4980764;28;20039;-85
2022/05/31 10:07:01;;;;;;;9.20;3.58;;;;;;;;;;4968542;28;20602;-85
2022/05/31 10:09:37;;;;;;;11.55;3.90;;;;;;;;;;4965244;28;20088;-85
2022/05/31 10:12:22;;;;;;;6.15;3.55;;;;;;;;;;4973345;28;20434;-85
2022/05/31 10:14:49;;;;;;;18.90;4.85;;;;;;;;;;4977118;28;20029;-85
2022/05/31 10:17:29;;;;;;;5.40;3.85;;;;;;;;;;4978968;28;20041;-85
2022/05/31 10:20:12;;;;;;;6.00;3.33;;;;;;;;;;4980717;28;20482;-84
2022/05/31 10:22:39;;;;;;;7.97;3.63;;;;;;;;;;4967297;28;20050;-84
2022/05/31 10:25:24;;;;;;;9.10;3.22;;;;;;;;;;4961038;28;20029;-84
2022/05/31 10:27:56;;;;;;;8.50;3.13;;;;;;;;;;4966627;28;20421;-84
2022/05/31 10:30:23;;;;;;;8.43;2.90;;;;;;;;;;4976899;28;20053;-85
2022/05/31 10:32:54;;;;;;;5.93;2.75;;;;;;;;;;4962470;28;20129;-85
2022/05/31 10:35:26;;;;;;;6.72;3.22;;;;;;;;;;4962549;28;20026;-84
2022/05/31 10:37:58;;;;;;;5.03;2.90;;;;;;;;;;4964667;28;20517;-85
2022/05/31 10:40:27;;;;;;;7.47;3.25;;;;;;;;;;4964312;28;20061;-84
2022/05/31 10:42:56;;;;;;;6.65;3.33;;;;;;;;;;4965301;28;20049;-84
2022/05/31 10:45:23;;;;;;;5.95;3.45;;;;;;;;;;4978007;28;20042;-84
2022/05/31 10:47:49;;;;;;;5.75;3.20;;;;;;;;;;4966124;28;20030;-85
2022/05/31 10:50:16;;;;;;;6.55;3.20;;;;;;;;;;4978294;28;20429;-85
2022/05/31 10:52:55;;;;;;;4.85;2.75;;;;;;;;;;4961523;28;20038;-89
2022/05/31 10:55:37;;;;;;;9.38;2.70;;;;;;;;;;4974300;28;20388;-89
2022/05/31 10:58:11;;;;;;;5.55;2.95;;;;;;;;;;4982301;28;20081;-89
2022/05/31 11:00:56;;;;;;;4.20;2.67;;;;;;;;;;4981105;28;20018;-89
2022/05/31 11:03:37;;;;;;;4.40;2.83;;;;;;;;;;4964422;28;20433;-87
2022/05/31 11:06:09;;;;;;;7.28;3.88;;;;;;;;;;4978005;28;20034;-89
2022/05/31 11:11:29;;;;;;;8.63;3.03;;;;;;;;;;4986451;28;20547;-89
2022/05/31 11:13:55;;;;;;;;;;;;;;;;;;4969381;28;20023;-89
2022/05/31 11:16:34;;;;;;;5.07;2.53;;;;;;;;;;4963379;28;20425;-89
2022/05/31 11:19:21;;;;;;;5.82;2.63;;;;;;;;;;4970689;28;20064;-87
2022/05/31 11:21:55;;;;;;;6.82;3.28;;;;;;;;;;4969696;28;20033;-88
2022/05/31 11:24:40;;;;;;;5.43;3.63;;;;;;;;;;4961386;28;20084;-88
2022/05/31 11:27:25;;;;;;;4.60;2.90;;;;;;;;;;4968063;28;20022;-88
2022/05/31 11:30:03;;;;;;;4.20;2.70;;;;;;;;;;4964768;28;20125;-87
2022/05/31 11:32:39;;;;;;;4.22;2.53;;;;;;;;;;4964872;28;20543;-84
2022/05/31 11:35:17;;;;;;;7.15;3.42;;;;;;;;;;4962722;28;20038;-84
2022/05/31 11:37:56;;;;;;;3.30;2.55;;;;;;;;;;4968726;28;20497;-84
2022/05/31 11:40:25;;;;;;;5.50;2.58;;;;;;;;;;4967513;28;20038;-84
2022/05/31 11:42:58;;;;;;;6.03;3.15;;;;;;;;;;4968163;28;20544;-84
2022/05/31 11:45:37;;;;;;;7.78;2.78;;;;;;;;;;4985523;28;20030;-84
2022/05/31 11:48:22;;;;;;;5.40;3.10;;;;;;;;;;4966944;28;20554;-84
2022/05/31 11:51:07;;;;;;;11.63;3.15;;;;;;;;;;4969993;28;20080;-83
2022/05/31 11:53:41;;;;;;;8.63;3.15;;;;;;;;;;4971201;28;20046;-84
2022/05/31 11:56:13;;;;;;;8.20;2.72;;;;;;;;;;4970818;28;20117;-84
2022/05/31 11:58:39;;;;;;;4.50;2.53;;;;;;;;;;4968331;28;20061;-84
2022/05/31 12:01:12;;;;;;;4.15;2.78;;;;;;;;;;4971649;28;20296;-83
2022/05/31 12:03:38;;;;;;;6.18;3.20;;;;;;;;;;4982954;28;20022;-84
2022/05/31 12:06:07;;;;;;;5.47;2.90;;;;;;;;;;4983608;28;20034;-84
2022/05/31 12:08:36;;;;;;;10.93;3.53;;;;;;;;;;4970638;28;20114;-84
2022/05/31 12:11:09;;;;;;;4.05;2.80;;;;;;;;;;4985528;28;20031;-84
2022/05/31 12:13:36;;;;;;;5.70;3.10;;;;;;;;;;4981247;28;20152;-84
2022/05/31 12:16:03;;;;;;;6.22;2.75;;;;;;;;;;4970687;28;20065;-84
2022/05/31 12:18:35;;;;;;;7.68;3.10;;;;;;;;;;4973298;28;20426;-84
2022/05/31 12:21:12;;;;;;;4.80;2.58;;;;;;;;;;4963599;28;20777;-84
2022/05/31 12:23:41;;;;;;;5.00;3.10;;;;;;;;;;4973022;28;20030;-84
2022/05/31 12:26:16;;;;;;;5.45;2.83;;;;;;;;;;4965086;28;20042;-84
2022/05/31 12:28:49;;;;;;;8.75;3.80;;;;;;;;;;4968527;28;21565;-83
2022/05/31 12:31:22;;;;;;;4.40;3.50;;;;;;;;;;4966529;28;20121;-84
2022/05/31 12:33:48;;;;;;;20.15;4.57;;;;;;;;;;4967911;28;20046;-83
2022/05/31 12:36:16;;;;;;;6.95;3.75;;;;;;;;;;4984499;28;20066;-83
2022/05/31 12:39:04;;;;;;;4.40;3.03;;;;;;;;;;4966220;28;20486;-83
2022/05/31 12:41:44;;;;;;;11.30;4.15;;;;;;;;;;4963201;28;20038;-84
2022/05/31 12:44:14;;;;;;;4.80;3.47;;;;;;;;;;4968156;28;20121;-84
2022/05/31 12:46:45;;;;;;;11.65;4.03;;;;;;;;;;4959348;28;20025;-84
2022/05/31 12:49:23;;;;;;;8.35;3.72;;;;;;;;;;4963064;28;20093;-84
2022/05/31 12:52:08;;;;;;;6.00;3.28;;;;;;;;;;4967234;28;20076;-83
2022/05/31 12:54:43;;;;;;;3.97;3.15;;;;;;;;;;4965435;28;20042;-84
2022/05/31 12:58:26;;;;;;;7.20;3.10;;;;;;;;;;4968476;28;20080;-83
2022/05/31 13:00:29;;;;;;;6.45;3.47;;;;;;;;;;4983402;28;20472;-84
2022/05/31 13:02:56;;;;;;;4.07;2.88;;;;;;;;;;4968594;28;20034;-84
2022/05/31 13:05:32;;;;;;;5.22;2.83;;;;;;;;;;4966731;28;20034;-84
2022/05/31 13:08:13;;;;;;;8.35;2.92;;;;;;;;;;4964726;28;20045;-83
2022/05/31 13:19:34;;;;;;;3.78;3.03;;;;;;;;;;4967824;28;20035;-83
2022/05/31 13:19:53;;;;;;;10.88;2.67;;;;;;;;;;4979698;28;20049;-84
2022/05/31 13:21:55;;;;;;;5.45;2.80;;;;;;;;;;4978502;28;20580;-83
2022/05/31 13:24:21;;;;;;;13.32;3.90;;;;;;;;;;4964189;28;20058;-83
2022/05/31 13:26:54;;;;;;;11.85;3.15;;;;;;;;;;4967660;28;20512;-83
2022/05/31 13:29:23;;;;;;;11.70;2.78;;;;;;;;;;4981060;28;20023;-84
2022/05/31 13:31:57;;;;;;;6.03;3.08;;;;;;;;;;4987413;28;20477;-84
2022/05/31 13:34:45;;;;;;;7.03;2.90;;;;;;;;;;4969681;28;20631;-83
2022/05/31 13:37:19;;;;;;;9.27;3.08;;;;;;;;;;4948797;28;20491;-83
2022/05/31 13:39:47;;;;;;;10.05;2.92;;;;;;;;;;4957737;28;20039;-83
2022/05/31 13:42:23;;;;;;;4.07;2.80;;;;;;;;;;4948627;28;20035;-84
2022/05/31 13:44:49;;;;;;;10.77;3.38;;;;;;;;;;4946269;28;20042;-83
2022/05/31 13:47:18;;;;;;;6.03;3.08;;;;;;;;;;4949416;28;20133;-84
2022/05/31 13:49:44;;;;;;;10.38;3.08;;;;;;;;;;4949926;28;20026;-84
2022/05/31 13:52:24;;;;;;;3.40;2.67;;;;;;;;;;4947650;28;20042;-83
2022/05/31 13:54:51;;;;;;;13.73;2.75;;;;;;;;;;4959941;28;20118;-84
2022/05/31 13:57:19;;;;;;;6.72;3.03;;;;;;;;;;4949024;28;21469;-84
2022/05/31 13:59:53;;;;;;;12.57;2.67;;;;;;;;;;4942232;28;20027;-84
2022/05/31 14:02:26;;;;;;;7.68;2.63;;;;;;;;;;4945498;28;20037;-84
2022/05/31 14:05:01;;;;;;;5.28;2.58;;;;;;;;;;4945583;28;20031;-83
2022/05/31 14:07:32;;;;;;;11.57;2.88;;;;;;;;;;4963464;28;20499;-83
2022/05/31 14:09:58;;;;;;;10.15;2.83;;;;;;;;;;4947056;28;20463;-84
2022/05/31 14:12:25;;;;;;;6.63;2.78;;;;;;;;;;4952556;28;20038;-83
2022/05/31 14:14:52;;;;;;;5.03;2.80;;;;;;;;;;4949742;28;20679;-84
2022/05/31 14:17:31;;;;;;;6.65;2.60;;;;;;;;;;4955919;28;20054;-83
2022/05/31 14:19:57;;;;;;;7.82;2.85;;;;;;;;;;4948783;28;20509;-83
2022/05/31 14:22:30;;;;;;;5.25;2.90;;;;;;;;;;4946884;28;20070;-84
2022/05/31 14:24:58;;;;;;;3.67;2.42;;;;;;;;;;4947220;28;20055;-83
2022/05/31 14:27:28;;;;;;;4.68;2.60;;;;;;;;;;4953018;28;20031;-83
2022/05/31 14:30:06;;;;;;;7.63;3.33;;;;;;;;;;4961961;28;20052;-84
2022/05/31 14:32:34;;;;;;;9.18;3.47;;;;;;;;;;4950170;28;20068;-83
2022/05/31 14:35:00;;;;;;;9.07;3.47;;;;;;;;;;4969373;28;20402;-83
2022/05/31 14:37:35;;;;;;;7.63;3.47;;;;;;;;;;4970334;28;20125;-84
2022/05/31 14:40:06;;;;;;;7.13;3.87;;;;;;;;;;4966080;28;20026;-83
2022/05/31 14:42:54;;;;;;;6.07;3.75;;;;;;;;;;4970637;28;20034;-84
2022/05/31 14:45:25;;;;;;;7.15;3.65;;;;;;;;;;4981798;28;20112;-83
2022/05/31 14:47:51;;;;;;;11.00;5.63;;;;;;;;;;4967181;28;20114;-84
2022/05/31 14:50:29;;;;;;;13.43;5.85;;;;;;;;;;4969577;28;20523;-84
2022/05/31 14:52:56;;;;;;;11.05;5.43;;;;;;;;;;4973852;28;20034;-84
2022/05/31 14:55:23;;;;;;;14.27;5.97;;;;;;;;;;4963171;28;20119;-84
2022/05/31 15:01:17;;;;;;;11.48;6.20;;;;;;;;;;4953264;28;20149;-83
2022/05/31 15:03:45;;;;;;;10.07;5.85;;;;;;;;;;4968116;28;20411;-83
2022/05/31 15:06:14;;;;;;;8.52;5.63;;;;;;;;;;4969465;28;20058;-84
2022/05/31 15:08:41;;;;;;;11.45;6.22;;;;;;;;;;4979743;28;20027;-84
2022/05/31 15:19:38;;;;;;;10.50;6.38;;;;;;;;;;4976609;28;20037;-84
2022/05/31 15:22:05;;;;;;;9.65;5.57;;;;;;;;;;4983224;28;20367;-84
2022/05/31 15:24:37;;;;;;;9.38;5.80;;;;;;;;;;4969900;28;20059;-84
2022/05/31 15:27:05;;;;;;;12.18;6.22;;;;;;;;;;4971703;28;20069;-84
2022/05/31 15:29:31;;;;;;;10.70;5.38;;;;;;;;;;4965555;28;20073;-85
2022/05/31 15:31:57;;;;;;;9.30;5.53;;;;;;;;;;4968591;28;20062;-84
2022/05/31 15:34:23;;;;;;;8.63;5.43;;;;;;;;;;4960646;28;20070;-84
2022/05/31 15:36:49;;;;;;;15.75;6.10;;;;;;;;;;4955665;28;20751;-84
2022/05/31 15:39:17;;;;;;;12.18;5.22;;;;;;;;;;4955947;28;20466;-84